.
WxDataArchive / Data Records for 2015-09-01
2015-08-31 September 2015 2015-09-02

Data Records for Tuesday, 01 September 2015

Time	Temp	Chill	HIndex	Humid	Dewpt	 Wind 	HiWind	WindDir	Rain 	Barom
-----	----	-----	------	-----	-----	------	------	-------	-----	-----
00:00	73.9	73.9	73.9	84	68.7	0	0	---	0.00	30.023 
00:05	73.9	73.9	73.9	84	68.7	0	0	---	0.00	30.023 
00:10	73.9	73.9	73.9	84	68.7	0	0	---	0.00	30.023 
00:15	73.9	73.9	73.9	84	68.7	0	0	---	0.00	30.023 
00:20	73.9	73.9	73.9	84	68.7	0	0	---	0.00	30.023 
00:25	73.9	73.9	73.9	84	68.7	0	0	---	0.00	30.023 
00:30	73.7	73.7	73.7	84	68.6	0	0	---	0.00	30.022 
00:35	73.7	73.7	73.7	84	68.6	0	0	---	0.00	30.022 
00:40	73.5	73.5	73.5	84	68.4	0	0	---	0.00	30.022 
00:45	73.5	73.5	73.5	84	68.4	0	0	---	0.00	30.022 
00:50	73.5	73.5	73.5	84	68.4	0	0	---	0.00	30.022 
00:55	73.3	73.3	73.3	84	68.2	0	0	---	0.00	30.022 
01:00	73.3	73.3	73.3	84	68.2	0	0	---	0.00	30.025 
01:05	73.3	73.3	73.3	84	68.2	0	0	---	0.00	30.025 
01:10	73.2	73.2	73.2	84	68.1	0	0	---	0.00	30.025 
01:15	73.2	73.2	73.2	84	68.1	0	0	---	0.00	30.027 
01:20	73.0	73.0	73.0	84	67.9	0	0	---	0.00	30.027 
01:25	72.8	72.8	72.8	84	67.7	0	0	---	0.00	30.027 
01:30	72.7	72.7	72.7	85	67.9	0	0	---	0.00	30.027 
01:35	72.5	72.5	72.5	85	67.7	0	0	---	0.00	30.027 
01:40	72.5	72.5	72.5	86	68.1	0	0	---	0.00	30.027 
01:45	72.3	72.3	72.3	86	67.9	0	0	---	0.00	30.030 
01:50	72.1	72.1	72.1	86	67.7	0	0	---	0.00	30.030 
01:55	72.0	72.0	72.0	87	67.9	0	0	---	0.00	30.030 
02:00	71.8	71.8	71.8	87	67.7	0	0	---	0.00	30.029 
02:05	71.8	71.8	71.8	87	67.7	0	0	---	0.00	30.029 
02:10	71.6	71.6	71.6	88	67.8	0	0	---	0.00	30.029 
02:15	71.6	71.6	71.6	88	67.8	0	0	---	0.00	30.025 
02:20	71.5	71.5	71.5	88	67.7	0	0	---	0.00	30.025 
02:25	71.3	71.3	71.3	88	67.6	0	0	---	0.00	30.025 
02:30	71.3	71.3	71.3	88	67.6	0	0	---	0.00	30.027 
02:35	71.1	71.1	71.1	89	67.7	0	0	---	0.00	30.027 
02:40	71.1	71.1	71.1	89	67.7	0	0	---	0.00	30.027 
02:45	71.1	71.1	71.1	89	67.7	0	0	---	0.00	30.019 
02:50	71.1	71.1	71.1	89	67.7	0	0	---	0.00	30.019 
02:55	71.1	71.1	71.1	89	67.7	0	0	---	0.00	30.019 
03:00	71.1	71.1	71.1	89	67.7	0	0	---	0.00	30.019 
03:05	71.1	71.1	71.1	90	68.0	0	0	---	0.00	30.019 
03:10	71.1	71.1	71.1	90	68.0	0	0	---	0.00	30.019 
03:15	71.1	71.1	71.1	90	68.0	0	0	---	0.00	30.020 
03:20	71.1	71.1	71.1	90	68.0	0	0	---	0.00	30.020 
03:25	71.1	71.1	71.1	90	68.0	0	0	---	0.00	30.020 
03:30	70.9	70.9	70.9	90	67.8	0	0	---	0.00	30.020 
03:35	70.9	70.9	70.9	90	67.8	0	0	---	0.00	30.020 
03:40	70.9	70.9	70.9	90	67.8	0	0	---	0.00	30.020 
03:45	70.8	70.8	70.8	90	67.7	0	0	---	0.00	30.020 
03:50	70.6	70.6	70.6	90	67.5	0	0	---	0.00	30.020 
03:55	70.6	70.6	70.6	90	67.5	0	0	---	0.00	30.020 
04:00	70.4	70.4	70.4	90	67.3	0	0	---	0.00	30.020 
04:05	70.4	70.4	70.4	90	67.3	0	0	---	0.00	30.020 
04:10	70.4	70.4	70.4	91	67.6	0	0	---	0.00	30.020 
04:15	70.3	70.3	70.3	91	67.5	0	0	---	0.00	30.020 
04:20	70.3	70.3	70.3	91	67.5	0	0	---	0.00	30.020 
04:25	70.3	70.3	70.3	91	67.5	0	0	---	0.00	30.020 
04:30	70.1	70.1	70.1	91	67.3	0	0	---	0.00	30.021 
04:35	69.9	69.9	69.9	91	67.1	0	0	---	0.00	30.021 
04:40	69.9	69.9	69.9	91	67.1	0	0	---	0.00	30.021 
04:45	69.9	69.9	69.9	91	67.1	0	0	---	0.00	30.022 
04:50	69.8	69.8	69.8	91	67.0	0	0	---	0.00	30.022 
04:55	69.8	69.8	69.8	92	67.4	0	0	---	0.00	30.022 
05:00	69.8	69.8	69.8	92	67.4	0	0	---	0.00	30.025 
05:05	69.6	69.6	69.6	92	67.2	0	0	---	0.00	30.025 
05:10	69.6	69.6	69.6	92	67.2	0	0	---	0.00	30.025 
05:15	69.6	69.6	69.6	92	67.2	0	0	---	0.00	30.022 
05:20	69.6	69.6	69.6	92	67.2	0	0	---	0.00	30.022 
05:25	69.8	69.8	69.8	92	67.4	0	0	---	0.00	30.022 
05:30	69.9	69.9	69.9	92	67.5	0	0	---	0.00	30.022 
05:35	70.1	70.1	70.1	92	67.7	0	0	---	0.00	30.022 
05:40	70.1	70.1	70.1	92	67.7	0	0	---	0.00	30.022 
05:45	70.1	70.1	70.1	92	67.7	0	0	---	0.00	30.028 
05:50	69.9	69.9	69.9	92	67.5	0	0	---	0.00	30.028 
05:55	69.9	69.9	69.9	92	67.5	0	0	---	0.00	30.028 
06:00	69.9	69.9	69.9	92	67.5	0	0	---	0.00	30.033 
06:05	69.8	69.8	69.8	92	67.4	0	0	---	0.00	30.033 
06:10	69.8	69.8	69.8	92	67.4	0	0	---	0.00	30.033 
06:15	69.8	69.8	69.8	92	67.4	0	0	---	0.00	30.038 
06:20	69.8	69.8	69.8	92	67.4	0	0	---	0.00	30.038 
06:25	69.8	69.8	69.8	92	67.4	0	0	---	0.00	30.038 
06:30	69.6	69.6	69.6	92	67.2	0	0	---	0.00	30.039 
06:35	69.6	69.6	69.6	92	67.2	0	0	---	0.00	30.039 
06:40	69.6	69.6	69.6	92	67.2	0	0	---	0.00	30.039 
06:45	69.6	69.6	69.6	92	67.2	0	0	---	0.00	30.046 
06:50	69.4	69.4	69.4	92	67.0	0	0	---	0.00	30.046 
06:55	69.4	69.4	69.4	92	67.0	0	0	---	0.00	30.046 
07:00	69.4	69.4	69.4	92	67.0	0	0	---	0.00	30.051 
07:05	69.4	69.4	69.4	92	67.0	0	0	---	0.00	30.051 
07:10	69.4	69.4	69.4	92	67.0	0	0	---	0.00	30.051 
07:15	69.4	69.4	69.4	92	67.0	0	0	---	0.00	30.054 
07:20	69.4	69.4	69.4	92	67.0	0	0	---	0.00	30.054 
07:25	69.3	69.3	69.3	92	66.9	0	0	---	0.00	30.054 
07:30	69.3	69.3	69.3	92	66.9	0	0	---	0.00	30.054 
07:35	69.1	69.1	69.1	93	67.0	0	0	---	0.00	30.054 
07:40	69.1	69.1	69.1	93	67.0	0	0	---	0.00	30.054 
07:45	69.1	69.1	69.1	93	67.0	0	0	---	0.00	30.054 
07:50	69.3	69.3	69.3	93	67.2	0	0	---	0.00	30.054 
07:55	69.3	69.3	69.3	93	67.2	0	0	---	0.00	30.054 
08:00	69.6	69.6	69.6	93	67.5	0	0	---	0.00	30.056 
08:05	69.8	69.8	69.8	93	67.7	0	0	---	0.00	30.056 
08:10	69.9	69.9	69.9	93	67.8	0	0	---	0.00	30.056 
08:15	70.1	70.1	70.1	93	68.0	0	0	---	0.00	30.059 
08:20	70.4	70.4	70.4	93	68.3	0	0	---	0.00	30.059 
08:25	70.6	70.6	70.6	93	68.5	0	0	---	0.00	30.059 
08:30	70.9	70.9	70.9	93	68.8	0	0	---	0.00	30.059 
08:35	71.1	71.1	71.1	93	69.0	0	0	---	0.00	30.059 
08:40	71.5	71.5	71.5	92	69.0	0	0	---	0.00	30.059 
08:45	71.8	71.8	71.8	92	69.3	0	0	---	0.00	30.060 
08:50	72.1	72.1	72.1	92	69.6	0	0	---	0.00	30.060 
08:55	72.5	72.5	72.5	91	69.7	0	0	---	0.00	30.060 
09:00	72.8	72.8	72.8	91	70.0	0	0	---	0.00	30.058 
09:05	73.2	73.2	73.2	90	70.1	0	0	---	0.00	30.058 
09:10	73.5	73.5	73.5	89	70.0	0	0	---	0.00	30.058 
09:15	73.9	73.9	73.9	88	70.1	0	0	---	0.00	30.059 
09:20	74.4	74.4	74.4	87	70.3	0	1	292	0.00	30.059 
09:25	74.7	74.7	74.7	86	70.2	0	1	292	0.00	30.059 
09:30	75.1	75.1	75.2	84	69.9	0	1	292	0.00	30.056 
09:35	75.4	75.4	75.8	83	69.9	0	2	292	0.00	30.056 
09:40	75.8	75.8	76.5	82	69.9	0	1	292	0.00	30.056 
09:45	76.1	76.1	77.1	81	69.8	0	2	292	0.00	30.055 
09:50	76.5	76.5	77.7	81	70.2	0	0	---	0.00	30.055 
09:55	76.8	76.8	78.3	79	69.8	0	1	292	0.00	30.055 
10:00	77.2	77.2	78.9	78	69.8	0	1	292	0.00	30.053 
10:05	77.6	77.6	79.6	78	70.2	0	1	292	0.00	30.053 
10:10	77.7	77.7	79.7	77	69.9	0	0	---	0.00	30.053 
10:15	78.1	78.1	80.4	77	70.3	0	1	292	0.00	30.052 
10:20	78.5	78.5	81.0	75	69.9	0	2	292	0.00	30.052 
10:25	79.2	79.2	82.1	74	70.2	0	0	---	0.00	30.052 
10:30	79.9	79.9	82.9	71	69.6	0	1	292	0.00	30.051 
10:35	80.9	80.9	84.6	71	70.6	0	1	292	0.00	30.051 
10:40	81.6	81.6	85.5	69	70.4	0	1	292	0.00	30.051 
10:45	82.4	82.4	86.7	68	70.8	0	1	292	0.00	30.053 
10:50	83.0	83.0	87.1	65	70.0	0	1	292	0.00	30.053 
10:55	83.2	83.2	87.5	65	70.2	0	1	292	0.00	30.053 
11:00	83.0	83.0	87.3	66	70.4	0	1	292	0.00	30.050 
11:05	83.2	83.2	87.5	65	70.2	0	3	0	0.00	30.050 
11:10	83.6	83.6	87.9	64	70.1	0	1	0	0.00	30.050 
11:15	83.4	83.4	87.6	64	69.9	0	2	0	0.00	30.053 
11:20	83.6	83.6	87.9	64	70.1	0	1	0	0.00	30.053 
11:25	83.6	83.6	87.9	64	70.1	0	2	0	0.00	30.053 
11:30	84.0	84.0	88.4	63	70.0	1	4	112	0.00	30.050 
11:35	84.0	84.0	88.6	64	70.5	0	3	112	0.00	30.050 
11:40	84.1	84.1	88.5	63	70.1	0	3	112	0.00	30.050 
11:45	84.5	84.5	89.6	64	71.0	0	1	112	0.00	30.051 
11:50	84.7	84.7	90.0	64	71.1	0	1	112	0.00	30.051 
11:55	84.5	84.5	89.0	62	70.0	0	2	112	0.00	30.051 
12:00	84.7	84.7	90.0	64	71.1	0	1	112	0.00	30.050 
12:05	84.9	84.9	90.0	63	70.9	0	3	112	0.00	30.050 
12:10	84.1	84.1	88.2	62	69.6	1	5	112	0.00	30.050 
12:15	83.4	83.4	87.6	64	69.9	0	2	112	0.00	30.051 
12:20	82.6	82.6	86.6	66	70.1	0	2	112	0.00	30.051 
12:25	82.4	82.4	86.3	66	69.9	0	1	112	0.00	30.051 
12:30	82.0	82.0	85.6	66	69.5	0	2	112	0.00	30.051 
12:35	82.2	82.2	86.8	70	71.4	0	2	112	0.00	30.051 
12:40	83.0	83.0	87.6	67	70.9	0	2	112	0.00	30.051 
12:45	84.0	84.0	88.6	64	70.5	0	1	112	0.00	30.048 
12:50	84.5	84.5	89.3	63	70.5	0	2	112	0.00	30.048 
12:55	84.1	84.1	88.5	63	70.1	0	2	112	0.00	30.048 
13:00	83.4	83.4	87.3	63	69.5	1	3	112	0.00	30.043 
13:05	82.8	82.8	87.0	66	70.3	0	1	112	0.00	30.043 
13:10	82.6	82.6	86.6	66	70.1	0	2	112	0.00	30.043 
13:15	82.6	82.6	86.4	65	69.6	0	0	---	0.00	30.039 
13:20	82.4	82.4	86.3	66	69.9	0	1	112	0.00	30.039 
13:25	82.8	82.8	87.2	67	70.7	0	1	112	0.00	30.039 
13:30	83.6	83.6	88.2	65	70.6	0	2	112	0.00	30.035 
13:35	84.5	84.5	89.6	64	71.0	0	1	112	0.00	30.035 
13:40	84.9	84.9	89.4	61	69.9	0	1	112	0.00	30.035 
13:45	84.7	84.7	88.4	59	68.8	1	2	112	0.00	30.024 
13:50	85.1	85.1	89.4	60	69.6	0	2	112	0.00	30.024 
13:55	85.3	85.3	89.8	60	69.8	0	1	112	0.00	30.024 
14:00	85.7	85.7	89.5	57	68.7	0	2	112	0.00	30.017 
14:05	85.9	85.9	90.2	58	69.4	0	1	112	0.00	30.017 
14:10	86.5	86.5	90.6	56	68.9	0	3	112	0.00	30.017 
14:15	86.3	86.3	89.6	54	67.7	0	1	112	0.00	30.015 
14:20	85.9	85.9	89.6	56	68.3	0	3	112	0.00	30.015 
14:25	85.5	85.5	89.5	58	69.0	0	2	112	0.00	30.015 
14:30	84.9	84.9	88.5	58	68.4	0	3	112	0.00	30.016 
14:35	84.5	84.5	88.4	60	69.1	0	1	112	0.00	30.016 
14:40	84.1	84.1	87.4	59	68.2	0	1	112	0.00	30.016 
14:45	84.3	84.3	88.9	63	70.3	0	0	---	0.00	30.019 
14:50	84.7	84.7	89.0	61	69.7	0	0	---	0.00	30.019 
14:55	84.7	84.7	88.7	60	69.2	0	2	112	0.00	30.019 
15:00	84.5	84.5	88.7	61	69.5	0	1	112	0.00	30.017 
15:05	84.7	84.7	89.3	62	70.2	0	2	112	0.00	30.017 
15:10	84.9	84.9	89.4	61	69.9	0	3	112	0.00	30.017 
15:15	85.3	85.3	88.2	55	67.3	0	3	112	0.00	30.015 
15:20	86.1	86.1	89.2	54	67.5	2	4	270	0.00	30.015 
15:25	86.7	86.7	88.9	50	65.8	1	4	270	0.00	30.015 
15:30	87.2	87.2	88.8	47	64.5	1	3	270	0.00	30.005 
15:35	87.2	87.2	88.5	46	63.9	0	2	270	0.00	30.005 
15:40	86.7	86.7	88.9	50	65.8	1	2	270	0.00	30.005 
15:45	86.1	86.1	89.6	55	68.0	1	3	270	0.00	30.003 
15:50	86.1	86.1	90.6	58	69.6	0	2	270	0.00	30.003 
15:55	86.1	86.1	89.2	54	67.5	1	5	68	0.00	30.003 
16:00	85.9	85.9	88.3	52	66.2	2	5	292	0.00	30.002 
16:05	85.9	85.9	88.3	52	66.2	1	3	292	0.00	30.002 
16:10	85.9	85.9	88.3	52	66.2	1	3	292	0.00	30.002 
16:15	85.7	85.7	88.6	54	67.1	1	4	292	0.00	30.003 
16:20	85.7	85.7	89.5	57	68.7	2	4	292	0.00	30.003 
16:25	85.7	85.7	88.9	55	67.6	1	4	292	0.00	30.003 
16:30	85.5	85.5	89.2	57	68.5	2	4	292	0.00	30.000 
16:35	85.3	85.3	88.8	57	68.3	2	4	292	0.00	30.000 
16:40	85.3	85.3	89.5	59	69.3	1	3	292	0.00	30.000 
16:45	85.3	85.3	89.8	60	69.8	2	5	292	0.00	29.993 
16:50	84.7	84.7	89.0	61	69.7	2	4	292	0.00	29.993 
16:55	84.1	84.1	88.2	62	69.6	1	3	292	0.00	29.993 
17:00	83.8	83.8	87.7	62	69.4	3	5	292	0.00	29.996 
17:05	83.4	83.4	87.0	62	69.0	1	4	292	0.00	29.996 
17:10	83.0	83.0	86.4	62	68.6	1	3	292	0.00	29.996 
17:15	83.2	83.2	86.9	63	69.3	1	4	292	0.00	30.001 
17:20	83.2	83.2	86.7	62	68.8	1	4	292	0.00	30.001 
17:25	83.0	83.0	86.4	62	68.6	0	2	292	0.00	30.001 
17:30	83.0	83.0	86.4	62	68.6	0	2	292	0.00	29.995 
17:35	83.0	83.0	86.4	62	68.6	0	2	292	0.00	29.995 
17:40	82.8	82.8	85.8	61	67.9	0	2	292	0.00	29.995 
17:45	83.0	83.0	86.4	62	68.6	0	0	---	0.00	29.991 
17:50	83.2	83.2	86.7	62	68.8	0	0	---	0.00	29.991 
17:55	83.6	83.6	87.4	62	69.2	0	1	292	0.00	29.991 
18:00	83.8	83.8	87.5	61	68.9	0	1	292	0.00	29.992 
18:05	83.8	83.8	87.5	61	68.9	0	0	---	0.00	29.992 
18:10	83.6	83.6	87.4	62	69.2	0	0	---	0.00	29.992 
18:15	83.6	83.6	87.6	63	69.6	0	1	292	0.00	29.994 
18:20	83.6	83.6	88.2	65	70.6	0	1	292	0.00	29.994 
18:25	83.4	83.4	87.8	65	70.4	0	1	292	0.00	29.994 
18:30	83.0	83.0	87.6	67	70.9	0	1	292	0.00	29.995 
18:35	82.6	82.6	86.9	67	70.5	0	2	292	0.00	29.995 
18:40	82.2	82.2	86.1	67	70.1	0	1	292	0.00	29.995 
18:45	82.0	82.0	85.8	67	69.9	0	2	292	0.00	30.002 
18:50	81.8	81.8	85.5	67	69.7	0	2	292	0.00	30.002 
18:55	81.6	81.6	85.1	67	69.6	0	2	292	0.00	30.002 
19:00	81.6	81.6	84.9	66	69.1	0	2	292	0.00	30.000 
19:05	81.4	81.4	84.8	67	69.4	0	1	292	0.00	30.000 
19:10	81.4	81.4	84.8	67	69.4	0	2	292	0.00	30.000 
19:15	81.2	81.2	84.5	67	69.2	0	0	---	0.00	29.997 
19:20	81.1	81.1	84.5	68	69.5	0	1	292	0.00	29.997 
19:25	80.9	80.9	84.0	67	68.9	0	0	---	0.00	29.997 
19:30	80.7	80.7	83.8	68	69.1	0	0	---	0.00	29.995 
19:35	80.5	80.5	83.5	68	68.9	0	1	292	0.00	29.995 
19:40	80.1	80.1	82.7	67	68.1	0	1	292	0.00	29.995 
19:45	79.9	79.9	82.6	68	68.4	0	0	---	0.00	29.995 
19:50	79.8	79.8	82.4	68	68.3	0	0	---	0.00	29.995 
19:55	79.4	79.4	81.8	68	67.9	0	1	292	0.00	29.995 
20:00	79.2	79.2	81.7	70	68.5	0	1	292	0.00	30.005 
20:05	79.0	79.0	81.4	70	68.4	0	0	---	0.00	30.005 
20:10	78.8	78.8	81.2	71	68.6	0	0	---	0.00	30.005 
20:15	78.6	78.6	81.0	72	68.8	0	0	---	0.00	30.006 
20:20	78.5	78.5	80.9	73	69.1	0	0	---	0.00	30.006 
20:25	78.3	78.3	80.6	73	68.9	0	0	---	0.00	30.006 
20:30	77.9	77.9	80.0	74	68.9	0	0	---	0.00	30.009 
20:35	77.7	77.7	79.7	74	68.7	0	0	---	0.00	30.009 
20:40	77.6	77.6	79.6	75	69.0	0	0	---	0.00	30.009 
20:45	77.2	77.2	79.0	76	69.0	0	0	---	0.00	30.012 
20:50	77.0	77.0	78.7	76	68.8	0	0	---	0.00	30.012 
20:55	76.8	76.8	78.4	77	69.0	0	0	---	0.00	30.012 
21:00	76.7	76.7	78.2	77	68.9	0	0	---	0.00	30.019 
21:05	76.7	76.7	78.2	77	68.9	0	0	---	0.00	30.019 
21:10	76.5	76.5	77.9	77	68.7	0	0	---	0.00	30.019 
21:15	76.3	76.3	77.6	78	68.9	0	0	---	0.00	30.018 
21:20	76.3	76.3	77.6	78	68.9	0	0	---	0.00	30.018 
21:25	76.1	76.1	77.3	78	68.7	0	0	---	0.00	30.018 
21:30	76.0	76.0	77.2	78	68.6	0	0	---	0.00	30.021 
21:35	75.8	75.8	76.8	79	68.8	0	0	---	0.00	30.021 
21:40	75.8	75.8	76.8	79	68.8	0	0	---	0.00	30.021 
21:45	75.6	75.6	76.4	80	69.0	0	0	---	0.00	30.021 
21:50	75.4	75.4	76.1	80	68.8	0	0	---	0.00	30.021 
21:55	75.3	75.3	76.0	80	68.7	0	0	---	0.00	30.021 
22:00	75.3	75.3	76.0	80	68.7	0	0	---	0.00	30.022 
22:05	75.1	75.1	75.7	80	68.5	0	0	---	0.00	30.022 
22:10	75.1	75.1	75.7	80	68.5	0	0	---	0.00	30.022 
22:15	74.9	74.9	74.9	80	68.3	0	0	---	0.00	30.016 
22:20	74.9	74.9	74.9	80	68.3	0	0	---	0.00	30.016 
22:25	74.7	74.7	74.7	80	68.1	0	0	---	0.00	30.016 
22:30	74.6	74.6	74.6	81	68.4	0	0	---	0.00	30.017 
22:35	74.4	74.4	74.4	81	68.2	0	0	---	0.00	30.017 
22:40	74.4	74.4	74.4	81	68.2	0	0	---	0.00	30.017 
22:45	74.2	74.2	74.2	81	68.0	0	0	---	0.00	30.020 
22:50	74.2	74.2	74.2	81	68.0	0	0	---	0.00	30.020 
22:55	74.2	74.2	74.2	81	68.0	0	0	---	0.00	30.020 
23:00	74.2	74.2	74.2	81	68.0	0	0	---	0.00	30.021 
23:05	74.2	74.2	74.2	81	68.0	0	0	---	0.00	30.021 
23:10	74.2	74.2	74.2	81	68.0	0	0	---	0.00	30.021 
23:15	74.2	74.2	74.2	81	68.0	0	0	---	0.00	30.021 
23:20	74.2	74.2	74.2	81	68.0	0	0	---	0.00	30.021 
23:25	74.2	74.2	74.2	81	68.0	0	0	---	0.00	30.021 
23:30	74.2	74.2	74.2	81	68.0	0	0	---	0.00	30.020 
23:35	74.2	74.2	74.2	81	68.0	0	0	---	0.00	30.020 
23:40	74.2	74.2	74.2	82	68.3	0	0	---	0.00	30.020 
23:45	74.0	74.0	74.0	82	68.1	0	0	---	0.00	30.022 
23:50	73.9	73.9	73.9	82	68.0	0	0	---	0.00	30.022 
23:55	73.9	73.9	73.9	83	68.4	0	1	292	0.00	30.022 

CoCoRaHS
IN-AL-39
A2 Web Hosting
Creative Commons License
GoDaddy
search engine by freefind advanced

loaded 2018-11-15 05:26:41 • last modified 2010-11-18 10:43:29
Privacy PolicyDisclaimer
• wx.awcolley.com is powered by PmWiki v.2002016 •
• all content (unless otherwise noted) © 2018 A W Colley